Terminal Aerodrome Forecast
Issued by NWS Twin Cities, MN

Home | Current Version | Previous Version | Graphics & Text | Print | Product List | Glossary On
Versions: 1 2 3 4 5 6 7 8 9 10 11 12 13 14 15 16 17 18
053
FTUS43 KMPX 221139
TAFSTC
TAF
KSTC 221139Z 2212/2312 00000KT P6SM SKC
     FM221500 16007KT P6SM SKC
     FM221700 18015G22KT P6SM FEW250
     FM230200 16008KT P6SM SCT250
     FM231000 16010KT P6SM VCTS BKN045CB=

USA.gov is the U.S. government's official web portal to all federal, state and local government web resources and services.